Time;durP1;ratioP1;P1;durP2;ratioP2;P2;SDS_P1;SDS_P2;PMS_P1;PMS_P2;Temp;Humidity;BMP_temperature;BMP_pressure;BME280_temperature;BME280_humidity;BME280_pressure;Samples;Min_cycle;Max_cycle;Signal;HPM_P1;HPM_P2
2021/07/10 00:00:13;;;;;;;9.98;4.15;;;691.70;1433.60;;;;;;5034596;28;20041;-50
2021/07/10 00:02:40;;;;;;;7.53;4.35;;;691.70;1433.60;;;;;;5034570;28;20022;-51
2021/07/10 00:05:08;;;;;;;10.82;4.20;;;691.80;1433.60;;;;;;5034871;28;20026;-50
2021/07/10 00:07:35;;;;;;;7.38;4.05;;;691.70;1433.60;;;;;;5035071;28;20013;-51
2021/07/10 00:10:01;;;;;;;5.38;4.80;;;691.70;1433.60;;;;;;4990017;28;1299745;-50
2021/07/10 00:12:26;;;;;;;6.57;4.22;;;691.60;1433.60;;;;;;5034970;28;20033;-51
2021/07/10 00:14:52;;;;;;;7.57;4.55;;;691.70;1433.60;;;;;;5035181;28;20029;-50
2021/07/10 00:17:18;;;;;;;5.85;4.50;;;691.60;1433.60;;;;;;5034941;28;20466;-51
2021/07/10 00:19:44;;;;;;;6.03;4.20;;;691.50;1459.20;;;;;;5034952;28;20024;-56
2021/07/10 00:22:10;;;;;;;6.13;4.53;;;691.50;1459.20;;;;;;5034851;28;20022;-59
2021/07/10 00:24:36;;;;;;;8.20;4.18;;;691.50;1459.20;;;;;;5017054;28;20033;-60
2021/07/10 00:27:02;;;;;;;7.05;4.43;;;691.50;1459.20;;;;;;5034811;28;20021;-51
2021/07/10 00:29:28;;;;;;;6.35;4.45;;;691.50;1459.20;;;;;;5034729;28;20072;-52
2021/07/10 00:31:54;;;;;;;9.27;4.45;;;691.40;1459.20;;;;;;5035107;28;20022;-51
2021/07/10 00:34:20;;;;;;;31.40;5.20;;;691.40;1459.20;;;;;;5035050;28;20124;-50
2021/07/10 00:36:46;;;;;;;7.22;3.72;;;691.40;1459.20;;;;;;5035086;28;20052;-51
2021/07/10 00:39:12;;;;;;;8.35;3.85;;;691.30;1510.40;;;;;;5034996;28;20100;-50
2021/07/10 00:41:37;;;;;;;6.07;4.68;;;691.30;1459.20;;;;;;5034998;28;20377;-51
2021/07/10 00:44:03;;;;;;;10.45;4.90;;;691.30;1459.20;;;;;;5034886;28;20442;-56
2021/07/10 00:46:29;;;;;;;6.53;4.25;;;691.30;1459.20;;;;;;5034904;28;20026;-50
2021/07/10 00:48:55;;;;;;;6.13;4.53;;;691.30;1484.80;;;;;;5034975;28;20029;-52
2021/07/10 00:51:21;;;;;;;8.52;4.22;;;691.20;1459.20;;;;;;5034814;28;20064;-51
2021/07/10 00:53:48;;;;;;;7.00;4.53;;;691.20;1459.20;;;;;;5033819;28;20033;-51
2021/07/10 00:56:15;;;;;;;8.75;4.05;;;691.20;1484.80;;;;;;5034748;28;20025;-51
2021/07/10 00:58:42;;;;;;;6.20;4.35;;;691.20;1484.80;;;;;;5035208;28;20032;-50
2021/07/10 01:01:08;;;;;;;5.53;4.15;;;691.20;1484.80;;;;;;5034546;28;20025;-51
2021/07/10 01:03:39;;;;;;;9.20;4.82;;;666.50;1510.40;;;;;;5034599;28;20041;-51
2021/07/10 01:06:05;;;;;;;5.00;3.92;;;666.40;1484.80;;;;;;5034798;28;20026;-60
2021/07/10 01:08:34;;;;;;;5.30;4.00;;;666.40;1484.80;;;;;;5034377;28;20111;-51
2021/07/10 01:11:00;;;;;;;5.97;3.90;;;666.40;1484.80;;;;;;5034166;28;20045;-50
2021/07/10 01:13:26;;;;;;;6.45;4.05;;;666.30;1484.80;;;;;;5034538;28;20038;-50
2021/07/10 01:15:52;;;;;;;5.90;4.00;;;666.30;1484.80;;;;;;5034286;28;20021;-51
2021/07/10 01:18:17;;;;;;;5.85;3.75;;;666.30;1484.80;;;;;;5034218;28;20084;-51
2021/07/10 01:20:48;;;;;;;6.70;4.40;;;666.20;1484.80;;;;;;5016503;28;20027;-50
2021/07/10 01:23:14;;;;;;;6.88;4.07;;;666.20;1484.80;;;;;;5034440;28;20109;-50
2021/07/10 01:25:40;;;;;;;4.10;3.20;;;666.10;1484.80;;;;;;5034198;28;20013;-51
2021/07/10 01:28:08;;;;;;;4.93;3.75;;;666.20;1459.20;;;;;;5034097;28;20041;-51
2021/07/10 01:30:36;;;;;;;4.30;3.45;;;666.10;1484.80;;;;;;5033972;28;20025;-51
2021/07/10 01:33:04;;;;;;;7.75;4.00;;;666.10;1484.80;;;;;;5034130;28;20108;-50
2021/07/10 01:35:29;;;;;;;5.53;3.55;;;666.00;1484.80;;;;;;5034222;28;20029;-50
2021/07/10 01:37:55;;;;;;;5.15;3.80;;;666.00;1484.80;;;;;;5033947;28;20374;-51
2021/07/10 01:40:23;;;;;;;7.72;4.55;;;666.00;1484.80;;;;;;5034196;28;20471;-51
2021/07/10 01:42:50;;;;;;;7.65;4.88;;;666.00;1484.80;;;;;;5016098;28;20467;-51
2021/07/10 01:45:18;;;;;;;6.45;5.13;;;666.00;1484.80;;;;;;5033982;28;20029;-50
2021/07/10 01:47:44;;;;;;;6.82;5.13;;;666.00;1484.80;;;;;;5033804;28;20022;-51
2021/07/10 01:50:10;;;;;;;12.35;5.90;;;666.00;1484.80;;;;;;5033773;28;20026;-51
2021/07/10 01:52:38;;;;;;;9.43;5.60;;;666.00;1510.40;;;;;;5033758;28;20018;-50
2021/07/10 01:55:06;;;;;;;7.95;5.18;;;666.00;1510.40;;;;;;5033718;28;20041;-51
2021/07/10 01:57:32;;;;;;;8.80;5.60;;;665.90;1510.40;;;;;;5033900;28;20105;-51
2021/07/10 01:59:58;;;;;;;7.40;5.60;;;665.80;1510.40;;;;;;5033589;28;20152;-50
2021/07/10 02:02:24;;;;;;;7.95;5.30;;;665.80;1536.00;;;;;;5034141;28;20032;-51
2021/07/10 02:04:52;;;;;;;7.72;5.82;;;665.70;1536.00;;;;;;5033735;28;20022;-51
2021/07/10 02:07:19;;;;;;;8.10;5.35;;;665.80;1561.60;;;;;;5033433;28;20022;-51
2021/07/10 02:09:45;;;;;;;9.40;6.25;;;665.80;1536.00;;;;;;5033222;28;20045;-51
2021/07/10 02:12:13;;;;;;;10.15;6.20;;;665.70;1561.60;;;;;;5033430;28;20104;-51
2021/07/10 02:14:39;;;;;;;7.78;5.95;;;665.70;1536.00;;;;;;5033451;28;20033;-51
2021/07/10 02:17:06;;;;;;;7.40;6.32;;;665.70;1536.00;;;;;;5033462;28;20018;-51
2021/07/10 02:19:33;;;;;;;8.85;6.45;;;665.70;1561.60;;;;;;5033435;28;20041;-51
2021/07/10 02:21:59;;;;;;;9.20;7.00;;;665.70;1587.20;;;;;;5033360;28;20428;-51
2021/07/10 02:24:25;;;;;;;10.32;6.75;;;665.70;1561.60;;;;;;5033455;28;20021;-51
2021/07/10 02:26:51;;;;;;;10.02;6.22;;;665.60;1587.20;;;;;;5033609;28;20053;-51
2021/07/10 02:29:17;;;;;;;9.80;6.63;;;640.90;1587.20;;;;;;5033462;28;20441;-51
2021/07/10 02:31:43;;;;;;;10.73;6.72;;;640.90;1561.60;;;;;;5033265;28;20433;-51
2021/07/10 02:34:09;;;;;;;9.60;6.88;;;640.90;1561.60;;;;;;5033193;28;20037;-51
2021/07/10 02:36:35;;;;;;;10.05;7.05;;;640.90;1561.60;;;;;;5033234;28;20022;-52
2021/07/10 02:39:01;;;;;;;12.02;6.75;;;640.90;1561.60;;;;;;5033277;28;20080;-51
2021/07/10 02:41:27;;;;;;;9.32;5.50;;;665.60;1587.20;;;;;;5033219;28;20025;-52
2021/07/10 02:43:53;;;;;;;9.95;5.05;;;640.90;1561.60;;;;;;5033168;28;20053;-51
2021/07/10 02:46:19;;;;;;;9.73;4.95;;;640.90;1536.00;;;;;;5033409;28;20025;-52
2021/07/10 02:48:46;;;;;;;7.82;4.15;;;640.90;1536.00;;;;;;5033407;28;20527;-52
2021/07/10 02:51:13;;;;;;;8.20;4.10;;;640.90;1536.00;;;;;;5033399;28;20458;-51
2021/07/10 02:53:39;;;;;;;9.15;4.18;;;640.90;1536.00;;;;;;5033028;28;20042;-52
2021/07/10 02:56:06;;;;;;;8.80;3.35;;;640.80;1536.00;;;;;;5033068;28;20018;-52
2021/07/10 02:58:32;;;;;;;5.97;3.45;;;640.80;1536.00;;;;;;5033323;28;20101;-51
2021/07/10 03:00:58;;;;;;;5.43;3.72;;;640.80;1536.00;;;;;;5032979;28;20017;-52
2021/07/10 03:03:24;;;;;;;4.53;3.05;;;640.70;1536.00;;;;;;5033038;28;20109;-60
2021/07/10 03:05:50;;;;;;;9.98;3.30;;;640.80;1536.00;;;;;;5033182;28;20071;-52
2021/07/10 03:08:20;;;;;;;5.20;2.85;;;640.70;1510.40;;;;;;5015253;28;20033;-61
2021/07/10 03:10:47;;;;;;;5.65;2.72;;;640.80;1510.40;;;;;;5032424;28;20135;-52
2021/07/10 03:13:14;;;;;;;5.85;2.55;;;640.80;1484.80;;;;;;5032907;28;20171;-52
2021/07/10 03:15:40;;;;;;;4.32;2.22;;;640.80;1484.80;;;;;;5015189;28;20030;-51
2021/07/10 03:18:06;;;;;;;6.30;2.05;;;640.80;1484.80;;;;;;5035388;28;20024;-52
2021/07/10 03:20:32;;;;;;;4.70;1.90;;;640.70;1484.80;;;;;;5036467;28;20470;-52
2021/07/10 03:22:58;;;;;;;4.47;2.10;;;640.80;1459.20;;;;;;5036379;28;20021;-52
2021/07/10 03:25:25;;;;;;;4.53;1.80;;;640.70;1459.20;;;;;;5036790;28;20371;-51
2021/07/10 03:27:52;;;;;;;5.15;1.80;;;640.70;1459.20;;;;;;5036324;28;20049;-51
2021/07/10 03:30:20;;;;;;;5.05;1.60;;;640.70;1433.60;;;;;;5036557;28;20037;-51
2021/07/10 03:32:46;;;;;;;5.45;1.50;;;640.70;1433.60;;;;;;5036427;28;20079;-52
2021/07/10 03:35:14;;;;;;;5.20;1.77;;;640.50;1433.60;;;;;;5036524;28;20033;-52
2021/07/10 03:37:40;;;;;;;4.15;1.38;;;640.60;1433.60;;;;;;5036174;28;20021;-51
2021/07/10 03:40:08;;;;;;;4.70;1.38;;;;;;;;;;5036053;28;20065;-51
2021/07/10 03:42:34;;;;;;;4.00;1.25;;;;;;;;;;5036080;28;20021;-52
2021/07/10 03:45:00;;;;;;;2.65;1.25;;;;;;;;;;5036649;28;20021;-51
2021/07/10 03:47:26;;;;;;;1.88;1.10;;;;;;;;;;5036073;28;20139;-52
2021/07/10 03:49:53;;;;;;;2.88;1.73;;;;;;;;;;5035989;28;20100;-51
2021/07/10 03:52:19;;;;;;;3.53;1.25;;;;;;;;;;5036196;28;20033;-52
2021/07/10 03:54:46;;;;;;;3.65;1.15;;;;;;;;;;5036057;28;20033;-52
2021/07/10 03:57:12;;;;;;;5.00;1.20;;;;;;;;;;5036684;28;20032;-51
2021/07/10 03:59:38;;;;;;;7.53;1.25;;;;;;;;;;5036141;28;20489;-52
2021/07/10 04:02:05;;;;;;;3.53;1.40;;;;;;;;;;5035791;28;20051;-52
2021/07/10 04:04:31;;;;;;;22.35;2.45;;;;;;;;;;5035790;28;20386;-52
2021/07/10 04:06:57;;;;;;;4.53;1.27;;;;;;;;;;5035666;28;20394;-51
2021/07/10 04:09:23;;;;;;;3.15;1.42;;;;;;;;;;5035667;28;20096;-52
2021/07/10 04:11:50;;;;;;;8.73;1.55;;;;;;;;;;5035494;28;20404;-52
2021/07/10 04:14:16;;;;;;;3.33;1.17;;;;;;;;;;5035426;28;20394;-52
2021/07/10 04:16:42;;;;;;;2.70;1.27;;;;;;;;;;5035665;28;20056;-52
2021/07/10 04:19:08;;;;;;;3.10;1.55;;;;;;;;;;5035348;28;20034;-52
2021/07/10 04:21:34;;;;;;;7.75;1.60;;;;;;;;;;5035705;28;20022;-51
2021/07/10 04:24:00;;;;;;;5.70;1.40;;;640.60;1459.20;;;;;;5035060;28;20401;-52
2021/07/10 04:26:26;;;;;;;2.20;1.40;;;640.50;1459.20;;;;;;5034777;28;20017;-51
2021/07/10 04:28:52;;;;;;;4.25;1.55;;;640.40;1459.20;;;;;;5033915;28;20040;-51
2021/07/10 04:31:18;;;;;;;3.92;1.65;;;640.30;1459.20;;;;;;5035511;28;20121;-51
2021/07/10 04:33:44;;;;;;;2.80;1.40;;;640.30;1459.20;;;;;;5035056;28;20038;-51
2021/07/10 04:36:09;;;;;;;3.22;1.27;;;640.30;1459.20;;;;;;5035179;28;20017;-55
2021/07/10 04:38:39;;;;;;;4.18;1.25;;;;;;;;;;5034589;28;20021;-52
2021/07/10 04:41:06;;;;;;;3.17;1.20;;;;;;;;;;5034829;28;20049;-51
2021/07/10 04:43:33;;;;;;;6.40;1.67;;;;;;;;;;5035145;28;20021;-61
2021/07/10 04:45:59;;;;;;;3.65;1.27;;;;;;;;;;5035221;28;20025;-52
2021/07/10 04:48:25;;;;;;;6.53;1.42;;;640.50;1433.60;;;;;;5035453;28;20025;-61
2021/07/10 04:50:51;;;;;;;3.15;1.17;;;640.20;1433.60;;;;;;5034783;28;20025;-52
2021/07/10 04:53:17;;;;;;;2.75;1.30;;;640.30;1433.60;;;;;;5034724;28;20037;-51
2021/07/10 04:55:43;;;;;;;3.45;1.25;;;640.10;1459.20;;;;;;5034766;28;20021;-52
2021/07/10 04:58:09;;;;;;;4.18;1.38;;;640.10;1459.20;;;;;;5034342;28;20414;-51
2021/07/10 05:00:36;;;;;;;4.35;1.20;;;640.10;1433.60;;;;;;5034391;28;20033;-62
2021/07/10 05:03:02;;;;;;;2.70;1.00;;;640.10;1433.60;;;;;;5034825;28;20449;-52
2021/07/10 05:05:28;;;;;;;3.45;1.10;;;640.10;1433.60;;;;;;5033877;28;20473;-52
2021/07/10 05:07:54;;;;;;;6.18;1.10;;;640.10;1433.60;;;;;;5016069;28;20025;-62
2021/07/10 05:10:21;;;;;;;2.67;1.00;;;640.20;1433.60;;;;;;5034332;28;20528;-51
2021/07/10 05:12:47;;;;;;;1.98;1.00;;;640.20;1433.60;;;;;;5034186;28;20105;-51
2021/07/10 05:15:14;;;;;;;5.57;0.98;;;640.20;1433.60;;;;;;5016651;28;20404;-52
2021/07/10 05:17:41;;;;;;;1.35;0.80;;;640.20;1408.00;;;;;;5034367;28;20429;-52
2021/07/10 05:20:08;;;;;;;4.15;2.85;;;640.30;1408.00;;;;;;5034263;28;20119;-52
2021/07/10 05:22:34;;;;;;;1.75;1.02;;;640.30;1408.00;;;;;;5034519;28;20472;-52
2021/07/10 05:25:00;;;;;;;3.13;1.02;;;640.30;1408.00;;;;;;5034512;28;20131;-51
2021/07/10 05:27:26;;;;;;;2.75;0.80;;;640.40;1382.40;;;;;;5034154;28;20367;-51
2021/07/10 05:29:52;;;;;;;1.85;0.73;;;640.50;1382.40;;;;;;5034098;28;20025;-52
2021/07/10 05:32:18;;;;;;;4.93;0.98;;;640.50;1356.80;;;;;;5034124;28;20053;-52
2021/07/10 05:34:44;;;;;;;2.53;0.70;;;640.50;1356.80;;;;;;5034167;28;20037;-51
2021/07/10 05:37:10;;;;;;;1.17;0.93;;;640.50;1356.80;;;;;;5033694;28;20025;-52
2021/07/10 05:39:38;;;;;;;3.00;0.73;;;640.50;1356.80;;;;;;5033589;28;20057;-53
2021/07/10 05:42:05;;;;;;;1.38;0.40;;;640.50;1356.80;;;;;;5034204;28;20030;-52
2021/07/10 05:44:31;;;;;;;2.58;0.60;;;640.60;1331.20;;;;;;5033829;28;20108;-61
2021/07/10 05:46:57;;;;;;;5.20;0.98;;;640.60;1331.20;;;;;;5033497;28;20033;-51
2021/07/10 05:49:23;;;;;;;6.07;0.70;;;640.70;1356.80;;;;;;5033290;28;20441;-52
2021/07/10 05:51:49;;;;;;;2.63;0.60;;;640.70;1356.80;;;;;;5033755;28;20473;-52
2021/07/10 05:54:15;;;;;;;5.85;0.77;;;640.80;1356.80;;;;;;5033966;28;20048;-52
2021/07/10 05:56:42;;;;;;;1.13;0.55;;;640.80;1331.20;;;;;;5033715;28;20025;-52
2021/07/10 05:59:08;;;;;;;0.90;0.52;;;640.80;1331.20;;;;;;5033764;28;20462;-52
2021/07/10 06:01:34;;;;;;;2.85;0.70;;;640.80;1331.20;;;;;;5033691;28;20064;-51
2021/07/10 06:04:01;;;;;;;2.00;0.50;;;640.80;1331.20;;;;;;5033860;28;20037;-52
2021/07/10 06:06:27;;;;;;;2.42;0.50;;;640.90;1331.20;;;;;;5033843;28;20021;-52
2021/07/10 06:08:53;;;;;;;3.42;0.70;;;640.90;1305.60;;;;;;5033570;28;20030;-52
2021/07/10 06:11:19;;;;;;;3.47;0.50;;;640.90;1331.20;;;;;;5033268;28;20037;-52
2021/07/10 06:13:45;;;;;;;4.30;0.63;;;665.60;1356.80;;;;;;5033420;28;20069;-61
2021/07/10 06:16:11;;;;;;;1.83;0.60;;;665.60;1331.20;;;;;;5033459;28;20207;-53
2021/07/10 06:18:37;;;;;;;2.42;0.47;;;665.60;1331.20;;;;;;5033642;28;20559;-53
2021/07/10 06:21:03;;;;;;;4.68;0.88;;;665.60;1331.20;;;;;;5033698;28;20034;-61
2021/07/10 06:23:30;;;;;;;5.18;0.82;;;665.70;1331.20;;;;;;5033364;28;20064;-51
2021/07/10 06:25:56;;;;;;;2.05;0.60;;;665.70;1331.20;;;;;;5033342;28;20030;-62
2021/07/10 06:28:22;;;;;;;4.82;0.70;;;665.80;1305.60;;;;;;5033364;28;20029;-52
2021/07/10 06:30:48;;;;;;;4.45;0.60;;;665.70;1305.60;;;;;;5033304;28;20104;-52
2021/07/10 06:33:14;;;;;;;2.53;0.38;;;665.80;1331.20;;;;;;5033222;28;20104;-52
2021/07/10 06:35:40;;;;;;;2.50;0.70;;;665.80;1305.60;;;;;;5033257;28;20083;-61
2021/07/10 06:38:06;;;;;;;0.57;0.35;;;665.80;1331.20;;;;;;5033332;28;20022;-61
2021/07/10 06:40:32;;;;;;;16.48;0.93;;;665.80;1305.60;;;;;;5033205;28;20466;-52
2021/07/10 06:42:58;;;;;;;3.58;0.65;;;665.80;1305.60;;;;;;5034036;28;20351;-52
2021/07/10 06:45:24;;;;;;;4.13;0.50;;;665.80;1305.60;;;;;;5033386;28;20029;-52
2021/07/10 06:47:50;;;;;;;2.53;0.50;;;665.80;1305.60;;;;;;5032595;28;20026;-52
2021/07/10 06:50:20;;;;;;;1.73;0.40;;;665.80;1331.20;;;;;;5032705;28;20478;-52
2021/07/10 06:52:46;;;;;;;2.25;0.43;;;665.80;1305.60;;;;;;5032465;28;20429;-61
2021/07/10 06:55:14;;;;;;;8.70;1.08;;;665.80;1331.20;;;;;;5037455;28;20095;-52
2021/07/10 06:57:40;;;;;;;9.80;0.90;;;665.90;1331.20;;;;;;5035624;28;20021;-52
2021/07/10 07:00:08;;;;;;;10.60;1.08;;;665.90;1331.20;;;;;;5034872;28;20025;-52
2021/07/10 07:02:34;;;;;;;2.78;0.82;;;666.00;1305.60;;;;;;5035273;28;20422;-52
2021/07/10 07:05:00;;;;;;;2.80;0.70;;;666.10;1305.60;;;;;;5035589;28;20055;-52
2021/07/10 07:07:26;;;;;;;1.75;0.88;;;666.00;1280.00;;;;;;5035609;28;20025;-52
2021/07/10 07:09:52;;;;;;;3.97;0.80;;;666.00;1280.00;;;;;;5035557;28;20025;-52
2021/07/10 07:12:18;;;;;;;2.75;0.70;;;666.20;1305.60;;;;;;5035684;28;20099;-51
2021/07/10 07:14:44;;;;;;;5.00;0.88;;;666.10;1280.00;;;;;;5036536;28;20037;-52
2021/07/10 07:17:09;;;;;;;3.78;0.90;;;666.20;1280.00;;;;;;5036661;28;20428;-52
2021/07/10 07:19:35;;;;;;;7.47;0.88;;;666.30;1280.00;;;;;;5036821;28;20471;-52
2021/07/10 07:22:01;;;;;;;8.63;1.17;;;666.30;1305.60;;;;;;5036807;28;20021;-52
2021/07/10 07:24:27;;;;;;;4.65;0.90;;;666.30;1280.00;;;;;;5036332;28;20064;-52
2021/07/10 07:26:54;;;;;;;2.92;0.90;;;666.30;1280.00;;;;;;5036648;28;20021;-51
2021/07/10 07:29:20;;;;;;;6.00;0.98;;;666.30;1305.60;;;;;;5036648;28;20053;-52
2021/07/10 07:31:46;;;;;;;2.28;0.90;;;666.40;1280.00;;;;;;5036342;28;20475;-52
2021/07/10 07:34:12;;;;;;;8.38;1.17;;;666.30;1280.00;;;;;;5036228;28;20033;-52
2021/07/10 07:36:39;;;;;;;2.60;0.82;;;666.40;1305.60;;;;;;5036385;28;20017;-51
2021/07/10 07:39:06;;;;;;;6.53;1.00;;;691.20;1305.60;;;;;;5018434;28;20029;-52
2021/07/10 07:41:34;;;;;;;2.15;1.17;;;691.20;1280.00;;;;;;5036421;28;20025;-52
2021/07/10 07:43:59;;;;;;;3.40;1.02;;;691.20;1280.00;;;;;;5036143;28;20033;-52
2021/07/10 07:46:25;;;;;;;9.25;1.48;;;691.20;1305.60;;;;;;5036702;28;20017;-51
2021/07/10 07:48:51;;;;;;;12.07;1.67;;;691.20;1305.60;;;;;;5035497;28;20026;-52
2021/07/10 07:51:18;;;;;;;4.35;1.30;;;691.30;1280.00;;;;;;5036279;28;20025;-52
2021/07/10 07:53:45;;;;;;;5.38;1.60;;;691.40;1280.00;;;;;;5035787;28;20497;-52
2021/07/10 07:56:11;;;;;;;5.68;1.48;;;691.40;1305.60;;;;;;5035991;28;20025;-52
2021/07/10 07:58:41;;;;;;;4.00;1.20;;;691.40;1305.60;;;;;;5036402;28;20025;-52
2021/07/10 08:01:08;;;;;;;3.85;1.52;;;691.40;1305.60;;;;;;5035713;28;20032;-52
2021/07/10 08:03:34;;;;;;;2.97;1.52;;;691.50;1305.60;;;;;;5035460;28;20021;-52
2021/07/10 08:06:01;;;;;;;3.92;1.27;;;691.80;1305.60;;;;;;5035371;28;20374;-52
2021/07/10 08:08:26;;;;;;;2.58;1.40;;;691.70;1305.60;;;;;;5035246;28;20028;-61
2021/07/10 08:10:53;;;;;;;7.47;1.13;;;691.70;1305.60;;;;;;5034920;28;20017;-57
2021/07/10 08:13:18;;;;;;;1.40;1.10;;;691.70;1305.60;;;;;;5035147;28;20029;-60
2021/07/10 08:15:44;;;;;;;5.13;1.45;;;691.70;1280.00;;;;;;5035042;28;20017;-61
2021/07/10 08:18:10;;;;;;;4.55;1.23;;;691.80;1280.00;;;;;;5035010;28;20371;-60
2021/07/10 08:20:37;;;;;;;5.72;1.60;;;691.80;1280.00;;;;;;5035051;28;20093;-61
2021/07/10 08:23:04;;;;;;;12.55;1.70;;;691.90;1280.00;;;;;;5035176;28;20057;-62
2021/07/10 08:25:30;;;;;;;2.88;1.40;;;691.90;1305.60;;;;;;5034939;28;20370;-61
2021/07/10 08:27:57;;;;;;;6.43;1.88;;;691.90;1280.00;;;;;;5035240;28;20116;-61
2021/07/10 08:30:24;;;;;;;6.05;1.90;;;691.90;1305.60;;;;;;5031570;28;20035;-53
2021/07/10 08:32:51;;;;;;;4.82;1.60;;;691.90;1305.60;;;;;;5031701;28;20033;-51
2021/07/10 08:35:19;;;;;;;4.95;1.90;;;691.90;1305.60;;;;;;5017231;28;20048;-52
2021/07/10 08:37:45;;;;;;;3.53;2.38;;;691.90;1305.60;;;;;;5035115;28;20049;-52
2021/07/10 08:40:12;;;;;;;12.10;2.42;;;691.90;1305.60;;;;;;5035027;28;20021;-52
2021/07/10 08:42:38;;;;;;;9.30;2.05;;;691.90;1305.60;;;;;;5034594;28;20014;-52
2021/07/10 08:45:07;;;;;;;10.52;2.00;;;691.90;1305.60;;;;;;5034608;28;20498;-56
2021/07/10 08:47:39;;;;;;;13.00;2.83;;;691.70;1305.60;;;;;;5034740;28;20033;-61
2021/07/10 08:50:07;;;;;;;9.30;2.00;;;691.70;1331.20;;;;;;5034916;28;20096;-61
2021/07/10 08:52:35;;;;;;;4.50;1.98;;;691.80;1331.20;;;;;;5035127;28;20421;-61
2021/07/10 08:55:04;;;;;;;3.63;1.92;;;691.70;1382.40;;;;;;5034399;28;20116;-57
2021/07/10 08:57:34;;;;;;;5.43;1.98;;;691.70;1382.40;;;;;;5034091;28;20025;-51
2021/07/10 09:00:00;;;;;;;5.15;2.10;;;691.70;1382.40;;;;;;5034098;28;20462;-60
2021/07/10 09:02:26;;;;;;;4.60;2.00;;;691.70;1382.40;;;;;;5034229;28;20347;-51
2021/07/10 09:04:52;;;;;;;4.80;2.20;;;691.80;1356.80;;;;;;5033997;28;20033;-61
2021/07/10 09:07:18;;;;;;;7.97;2.28;;;691.70;1382.40;;;;;;5034148;28;20373;-53
2021/07/10 09:09:47;;;;;;;8.13;2.10;;;691.80;1382.40;;;;;;5034040;28;20021;-52
2021/07/10 09:12:26;;;;;;;3.38;2.30;;;691.80;1408.00;;;;;;5031544;28;20037;-52
2021/07/10 09:14:51;;;;;;;15.90;2.38;;;691.80;1382.40;;;;;;5030780;28;20083;-60
2021/07/10 09:17:21;;;;;;;2.88;2.13;;;691.90;1356.80;;;;;;5033749;28;20422;-56
2021/07/10 09:19:49;;;;;;;5.78;1.83;;;691.90;1356.80;;;;;;5033728;28;20027;-56
2021/07/10 09:22:30;;;;;;;4.38;2.28;;;691.90;1382.40;;;;;;5034017;28;20087;-52
2021/07/10 09:24:59;;;;;;;4.45;1.98;;;692.00;1356.80;;;;;;5031825;28;20045;-61
2021/07/10 09:27:26;;;;;;;5.30;2.20;;;692.00;1356.80;;;;;;5033468;28;20018;-54
2021/07/10 09:29:52;;;;;;;5.00;2.63;;;692.10;1356.80;;;;;;5031027;28;20021;-51
2021/07/10 09:32:21;;;;;;;3.20;1.92;;;692.10;1382.40;;;;;;5033506;28;20036;-51
2021/07/10 09:34:56;;;;;;;3.88;2.53;;;716.80;1382.40;;;;;;5034150;28;20045;-51
2021/07/10 09:37:26;;;;;;;5.03;2.95;;;716.80;1382.40;;;;;;5034330;28;20100;-52
2021/07/10 09:39:58;;;;;;;8.38;2.60;;;716.80;1382.40;;;;;;5034005;28;20021;-61
2021/07/10 09:42:44;;;;;;;3.92;2.53;;;717.00;1382.40;;;;;;5033621;28;20363;-53
2021/07/10 09:45:25;;;;;;;3.22;2.47;;;717.00;1356.80;;;;;;5032045;28;20029;-51
2021/07/10 09:47:51;;;;;;;4.68;2.90;;;717.00;1356.80;;;;;;5031997;28;20112;-51
2021/07/10 09:50:25;;;;;;;5.80;2.90;;;717.10;1382.40;;;;;;5033226;28;20108;-52
2021/07/10 09:52:51;;;;;;;4.20;2.90;;;717.20;1356.80;;;;;;5031499;28;20095;-56
2021/07/10 09:55:18;;;;;;;5.45;2.90;;;717.20;1356.80;;;;;;5032046;28;20510;-52
2021/07/10 09:57:45;;;;;;;9.05;3.03;;;717.20;1356.80;;;;;;5033079;28;20021;-54
2021/07/10 10:00:17;;;;;;;6.28;3.05;;;717.20;1356.80;;;;;;5030286;28;20021;-51
2021/07/10 10:02:49;;;;;;;9.20;3.05;;;717.20;1382.40;;;;;;5033293;28;20064;-51
2021/07/10 10:05:20;;;;;;;4.50;3.08;;;717.20;1356.80;;;;;;5030682;28;20014;-61
2021/07/10 10:07:51;;;;;;;8.68;3.08;;;717.30;1356.80;;;;;;5032989;28;20083;-51
2021/07/10 10:10:21;;;;;;;7.50;2.80;;;717.30;1356.80;;;;;;5031900;28;20017;-52
2021/07/10 10:13:11;;;;;;;7.40;3.08;;;717.30;1382.40;;;;;;5029835;28;20049;-51
2021/07/10 10:15:50;;;;;;;4.93;2.63;;;717.50;1382.40;;;;;;5024340;28;20103;-51
2021/07/10 10:18:24;;;;;;;5.05;2.70;;;717.50;1356.80;;;;;;5032928;28;20029;-51
2021/07/10 10:20:51;;;;;;;8.52;3.10;;;717.60;1382.40;;;;;;5030569;28;20022;-51
2021/07/10 10:23:18;;;;;;;6.38;3.15;;;717.60;1356.80;;;;;;5032897;28;20110;-51
2021/07/10 10:25:45;;;;;;;6.22;3.45;;;717.60;1356.80;;;;;;5033334;28;20017;-51
2021/07/10 10:28:20;;;;;;;5.53;2.83;;;717.60;1356.80;;;;;;5037489;28;20053;-51
2021/07/10 10:30:50;;;;;;;6.25;2.58;;;717.70;1356.80;;;;;;5037582;28;20029;-61
2021/07/10 10:33:17;;;;;;;7.22;3.50;;;742.40;1356.80;;;;;;5037435;28;20022;-51
2021/07/10 10:35:45;;;;;;;8.18;3.25;;;742.40;1356.80;;;;;;5037574;28;20100;-53
2021/07/10 10:38:11;;;;;;;9.80;3.22;;;742.40;1356.80;;;;;;5037309;28;20021;-60
2021/07/10 10:40:37;;;;;;;7.05;2.90;;;742.40;1356.80;;;;;;5037356;28;20080;-51
2021/07/10 10:43:05;;;;;;;7.20;3.67;;;742.50;1356.80;;;;;;5037298;28;20018;-53
2021/07/10 10:45:34;;;;;;;9.10;3.33;;;742.50;1382.40;;;;;;5037212;28;20029;-52
2021/07/10 10:48:00;;;;;;;6.93;3.42;;;742.60;1356.80;;;;;;5036882;28;20469;-59
2021/07/10 10:50:37;;;;;;;7.03;2.80;;;742.60;1356.80;;;;;;5037154;28;20095;-52
2021/07/10 10:53:08;;;;;;;8.30;3.45;;;742.60;1356.80;;;;;;5037224;28;20032;-61
2021/07/10 10:55:37;;;;;;;4.55;3.42;;;742.60;1382.40;;;;;;5037255;28;20049;-52
2021/07/10 10:58:26;;;;;;;7.05;3.60;;;742.60;1382.40;;;;;;5037146;28;20409;-60
2021/07/10 11:01:00;;;;;;;5.93;3.55;;;742.70;1356.80;;;;;;5036949;28;20474;-51
2021/07/10 11:03:38;;;;;;;4.50;3.15;;;742.70;1356.80;;;;;;5024274;28;20035;-60
2021/07/10 11:06:04;;;;;;;7.28;3.22;;;742.70;1356.80;;;;;;5036270;28;20013;-53
2021/07/10 11:08:33;;;;;;;6.88;3.50;;;742.70;1356.80;;;;;;5036330;28;20075;-52
2021/07/10 11:10:59;;;;;;;10.10;3.97;;;742.80;1356.80;;;;;;5035942;28;20045;-52
2021/07/10 11:14:08;;;;;;;5.78;3.72;;;742.80;1356.80;;;;;;5036135;28;20459;-51
2021/07/10 11:16:35;;;;;;;4.40;3.30;;;742.90;1356.80;;;;;;5026726;28;20041;-52
2021/07/10 11:19:07;;;;;;;7.38;3.15;;;742.90;1356.80;;;;;;5036182;28;20382;-58
2021/07/10 11:21:37;;;;;;;7.13;3.42;;;743.00;1331.20;;;;;;5036085;28;20112;-51
2021/07/10 11:24:20;;;;;;;11.13;3.30;;;743.00;1331.20;;;;;;5035491;28;20128;-51
2021/07/10 11:26:55;;;;;;;5.68;3.42;;;743.00;1331.20;;;;;;5036304;28;20076;-52
2021/07/10 11:29:24;;;;;;;7.80;3.50;;;743.00;1331.20;;;;;;5036419;28;20097;-51
2021/07/10 11:31:51;;;;;;;9.38;3.58;;;743.00;1331.20;;;;;;5036233;28;20366;-57
2021/07/10 11:34:34;;;;;;;7.70;3.90;;;743.10;1331.20;;;;;;5036177;28;20045;-51
2021/07/10 11:37:15;;;;;;;5.57;3.45;;;743.10;1331.20;;;;;;5036603;28;20041;-51
2021/07/10 11:39:44;;;;;;;8.52;3.22;;;743.20;1331.20;;;;;;5036022;28;20026;-51
2021/07/10 11:42:30;;;;;;;8.80;3.45;;;743.20;1331.20;;;;;;5036419;28;20454;-51
2021/07/10 11:45:05;;;;;;;7.03;3.17;;;743.20;1356.80;;;;;;5036699;28;20071;-51
2021/07/10 11:47:43;;;;;;;13.43;3.47;;;743.20;1331.20;;;;;;5035382;28;20079;-51
2021/07/10 11:50:33;;;;;;;7.82;3.72;;;743.30;1331.20;;;;;;5033171;28;20018;-52
2021/07/10 11:53:11;;;;;;;11.60;3.67;;;743.30;1331.20;;;;;;5034726;28;20033;-50
2021/07/10 11:55:45;;;;;;;4.72;3.30;;;768.00;1305.60;;;;;;5016002;28;20033;-54
2021/07/10 11:58:14;;;;;;;10.07;3.80;;;768.10;1305.60;;;;;;5027665;28;20024;-59
2021/07/10 12:00:41;;;;;;;7.93;3.42;;;768.10;1305.60;;;;;;5035555;28;20029;-50
2021/07/10 12:03:21;;;;;;;11.10;3.97;;;768.20;1305.60;;;;;;5035641;28;20013;-51
2021/07/10 12:05:48;;;;;;;5.68;3.25;;;768.20;1305.60;;;;;;5035685;28;20029;-52
2021/07/10 12:08:15;;;;;;;9.45;3.58;;;768.20;1305.60;;;;;;5035449;28;20413;-60
2021/07/10 12:10:43;;;;;;;6.07;3.00;;;768.30;1280.00;;;;;;5035501;28;20112;-52
2021/07/10 12:13:29;;;;;;;11.80;3.47;;;768.30;1280.00;;;;;;5034870;28;20049;-52
2021/07/10 12:16:00;;;;;;;6.20;3.63;;;768.30;1280.00;;;;;;5033430;28;20555;-52
2021/07/10 12:18:31;;;;;;;7.63;4.15;;;768.40;1280.00;;;;;;5034834;28;20021;-60
2021/07/10 12:20:59;;;;;;;5.13;2.85;;;768.40;1280.00;;;;;;5035045;28;20045;-61
2021/07/10 12:23:31;;;;;;;5.60;3.38;;;768.40;1280.00;;;;;;5034638;28;20390;-60
2021/07/10 12:26:01;;;;;;;7.88;3.35;;;768.50;1254.40;;;;;;5034800;28;20049;-54
2021/07/10 12:28:33;;;;;;;3.80;3.40;;;768.50;1254.40;;;;;;5034627;28;20040;-51